Central Sonoma County Latest

27 Stations

15 Minute Data | America/Los_Angeles
as of 7/3/20 8:09 PM PDT
Station Date Time Temp (°F) RH (%) Dew Pt (°F) Wind Spd (mph) Wind Dir (°) Wind Gust (mph) Latest Rain (In) Daily Rain (In) Daily Min Temp (°F) Daily Max Temp (°F)
Healdsburg-South (Sodini) 7/3/20 2000 72.4   10.6 47   21 51.1   0.1 3.0 SE | 146 6.1   6.0 0.00 0.00 53.9   7.1 82.0   4.2
Windsor-NW (Ranch 8) 7/3/20 2000 71.1   9.9 54   20 53.4   0.8 2.7 SE | 142 6.4   2.7 0.00 0.00 53.3   4.2 81.2   5.8
Windsor-East (Ranch 16) 7/3/20 2000 69.7   10.4 53   22 51.8   0.6 3.4 S | 185 6.8   1.8 0.00 0.00 53.0   7.1 78.9   4.6
Mark West-North (Ranch 14) 7/3/20 2000 68.4   9.8 54   22 51.2   0.0 2.8 S | 179 7.0   0.1 0.00 0.00 53.0   6.2 77.9   4.0
Windsor-SE (Silk Rd) 7/3/20 2000 70.3   10.3 53   21 52.5   0.9 3.1 ESE | 119 6.5   2.6 0.00 0.00 53.1   8.0 77.6   2.5
Fulton-NW (Ranch 5) 7/3/20 2000 69.2   9.7 55   21 52.2   0.3 4.0 SE | 126 7.1   2.1 0.00 0.00 53.1   7.5 78.1   4.4
Windsor-South (Laughlin Rd) 7/3/20 2000 68.5   7.4 - - - - - 0.00 0.00 53.1   6.3 78.3   3.1
Fulton-SE (Barnes Rd) 7/3/20 2000 68.2   10.0 56   21 51.8   0.9 4.8 S | 178 7.9   1.3 0.00 0.00 52.7   5.3 76.6   4.4
Fulton-SW (Ranch 21) 7/3/20 2000 66.5   8.3 59   18 51.6   0.6 3.9 SSE | 168 7.7   2.7 0.00 0.00 52.9   6.5 76.4   3.6
Santa Rosa-NW (Goldfields) 7/3/20 2000 66.6   8.3 59   18 51.7   0.5 5.5 SE | 140 9.4   0.1 0.00 0.00 53.0   5.7 76.2   4.4
NW Santa Rosa (Piner Road) 7/3/20 2000 65.4   7.9 61   17 51.8   0.9 2.6 SSE | 156 6.2   4.0 0.00 0.00 53.0   8.7 74.9   3.9
River Rd South (Denner Ranch) 7/3/20 2000 67.0   9.5 59   20 52.2   1.1 5.8 ESE | 115 8.8   3.9 0.00 0.00 52.5   7.8 74.5   3.2
West Santa Rosa (Hawk's Roost) 7/3/20 2000 66.5   8.7 60   19 52.2   0.7 2.1 SE | 125 4.9   5.8 0.00 0.00 53.0   7.6 75.5   4.3
Guerneville Rd (Prokopakis) 4/12/20 1500 68.6   10.1 63   13 55.6   4.7 - - - - - 50.3   4.4 69.1   10.3
Guerneville Rd West (Balletto) 7/3/20 2000 66.6   8.8 62   17 53.3   1.8 3.7 SE | 137 7.5   3.9 0.00 0.00 53.3   9.2 74.0   3.2
Guerneville Rd East (Rich Ranch) 7/3/20 2000 66.6   8.4 59   19 51.8   0.5 - - - - - 53.3   8.3 77.3   4.6
Occidental Rd (Sebastopol) 7/3/20 2000 64.5   7.6 60   17 50.4   0.7 3.6 SE | 141 7.5   6.6 0.00 0.00 53.0   9.0 74.6   3.5
Lower Westside Rd (Ranch 12) 7/3/20 2000 70.0   11.5 56   22 53.7   1.9 1.7 SSE | 155 3.4   5.9 0.00 0.00 53.1   7.4 79.1   6.5
Guerneville (Laughlin Rd) 7/3/20 2000 66.0   8.9 71   10 56.2   5.1 0.0 N | 0 0.0   7.6 0.00 0.00 52.5   6.8 77.3   7.1
Korbel (Winery) 7/3/20 2000 71.4   13.3 53   25 53.6   2.1 2.8 NNW | 332 5.4   1.1 0.00 0.00 53.4   4.4 78.8   8.7
Forestville (Shone Farms) 7/3/20 2000 69.9   10.2 56   18 53.6   2.2 2.4 ESE | 106 5.6   3.3 0.00 0.00 52.2   4.7 79.5   5.0
Forestville-NE (Ranch 30) 7/3/20 2000 70.6   10.9 57   18 54.7   3.0 2.9 ESE | 123 5.5   2.3 0.00 0.00 52.4   6.8 79.9   6.2
Graton-West (Dutton Ranch) 7/3/20 2000 67.2   10.0 60   24 52.8   0.3 1.0 ENE | 64 3.7   2.4 0.00 0.00 53.0   9.0 77.0   5.4
Graton-South (Mill Station Rd) 7/3/20 2000 66.4   10.7 61   24 52.5   1.2 1.5 S | 179 3.8   9.2 0.00 0.00 52.4   10.5 70.1   3.3
Sexton Valley (Jacqueline's Blk) 7/3/20 2000 64.0   7.7 65   17 52.2   1.2 1.2 S | 189 4.0   4.8 0.00 0.00 52.7   8.4 69.4   2.2
Sebastopol Hills (Burnside Rd) 7/3/20 2000 63.5   9.4 67   22 52.4   1.6 1.4 WSW | 251 3.0   11.9 0.00 0.00 51.1   2.8 67.5   2.2
Seaview/Fort Ross (Hirsch) 7/3/20 2000 70.5   20.5 32   64 39.1   9.8 3.1 NW | 325 7.1   2.7 0.00 0.00 45.8   0.5 76.0   16.1
Max     72.4 71 56.2 5.8 - 9.4 0.00 0.00 53.9 82.0
Avg     68.0 57 52.0 2.9 - 5.9 0.00 - - -
Min     63.5 32 39.1 0.0 - 0.0 0.00 0.00 45.8 67.5